createdAt,value
2022-10-01T00:02:44.082Z,8.06
2022-10-01T00:07:47.485Z,8.07
2022-10-01T00:12:50.303Z,8.06
2022-10-01T00:17:53.881Z,8.04
2022-10-01T00:22:56.676Z,8.00
2022-10-01T00:28:00.078Z,7.95
2022-10-01T00:33:02.960Z,7.92
2022-10-01T00:38:07.452Z,7.92
2022-10-01T00:43:21.234Z,7.88
2022-10-01T00:48:27.072Z,7.86
2022-10-01T00:53:33.090Z,7.86
2022-10-01T00:58:36.200Z,7.89
2022-10-01T01:03:39.087Z,7.91
2022-10-01T01:08:42.979Z,7.91
2022-10-01T01:14:02.012Z,7.91
2022-10-01T01:19:14.997Z,7.86
2022-10-01T01:24:33.666Z,7.86
2022-10-01T01:29:53.144Z,7.89
2022-10-01T01:35:02.794Z,7.88
2022-10-01T01:40:11.153Z,7.89
2022-10-01T01:45:20.415Z,7.91
2022-10-01T01:50:29.126Z,7.92
2022-10-01T01:55:34.519Z,7.93
2022-10-01T02:00:37.715Z,7.96
2022-10-01T02:06:04.369Z,7.96
2022-10-01T02:11:23.228Z,7.93
2022-10-01T02:16:50.487Z,7.88
2022-10-01T02:22:02.411Z,7.80
2022-10-01T02:27:13.713Z,7.70
2022-10-01T02:32:18.435Z,7.62
2022-10-01T02:37:25.589Z,7.56
2022-10-01T02:42:31.184Z,7.45
2022-10-01T02:47:39.705Z,7.35
2022-10-01T02:53:07.267Z,7.26
2022-10-01T02:58:10.058Z,7.16
2022-10-01T03:03:12.981Z,7.06
2022-10-01T03:08:15.824Z,6.99
2022-10-01T03:13:22.027Z,6.96
2022-10-01T03:18:24.843Z,6.93
2022-10-01T03:23:27.651Z,6.86
2022-10-01T03:28:30.464Z,6.81
2022-10-01T03:33:33.691Z,6.78
2022-10-01T03:38:36.455Z,6.74
2022-10-01T03:43:39.172Z,6.69
2022-10-01T03:48:41.868Z,6.69
2022-10-01T03:53:44.597Z,6.66
2022-10-01T03:58:47.314Z,6.61
2022-10-01T04:03:50.459Z,6.57
2022-10-01T04:08:53.263Z,6.54
2022-10-01T04:13:58.060Z,6.51
2022-10-01T04:19:00.951Z,6.48
2022-10-01T04:24:05.695Z,6.47
2022-10-01T04:29:08.663Z,6.45
2022-10-01T04:34:11.397Z,6.41
2022-10-01T04:39:14.137Z,6.41
2022-10-01T04:44:16.946Z,6.39
2022-10-01T04:49:19.704Z,6.34
2022-10-01T04:54:22.471Z,6.31
2022-10-01T04:59:26.680Z,6.31
2022-10-01T05:04:29.421Z,6.31
2022-10-01T05:09:32.303Z,6.33
2022-10-01T05:14:36.186Z,6.37
2022-10-01T05:19:38.956Z,6.42
2022-10-01T05:24:43.444Z,6.49
2022-10-01T05:29:46.978Z,6.59
2022-10-01T05:34:53.467Z,6.72
2022-10-01T05:39:56.613Z,6.86
2022-10-01T05:44:59.329Z,7.01
2022-10-01T05:50:02.133Z,7.14
2022-10-01T05:55:05.276Z,7.27
2022-10-01T06:00:08.830Z,7.41
2022-10-01T06:05:11.652Z,7.63
2022-10-01T06:10:15.775Z,7.98
2022-10-01T06:15:18.981Z,8.35
2022-10-01T06:20:21.712Z,8.70
2022-10-01T06:25:26.086Z,9.01
2022-10-01T06:30:32.050Z,9.32
2022-10-01T06:35:36.756Z,9.62
2022-10-01T06:40:42.119Z,9.84
2022-10-01T06:45:44.972Z,10.05
2022-10-01T06:50:49.848Z,10.26
2022-10-01T06:55:52.656Z,10.59
2022-10-01T07:01:02.190Z,10.82
2022-10-01T07:06:08.079Z,10.96
2022-10-01T07:11:10.897Z,11.07
2022-10-01T07:16:13.782Z,11.18
2022-10-01T07:21:16.603Z,11.25
2022-10-01T07:26:19.349Z,11.33
2022-10-01T07:31:22.284Z,11.46
2022-10-01T07:36:25.469Z,11.77
2022-10-01T07:41:28.292Z,13.15
2022-10-01T07:46:34.580Z,14.92
2022-10-01T07:51:38.047Z,16.37
2022-10-01T07:56:41.742Z,17.39
2022-10-01T08:01:44.651Z,18.27
2022-10-01T08:06:49.122Z,18.91
2022-10-01T08:11:51.921Z,19.43
2022-10-01T08:16:55.950Z,19.65
2022-10-01T08:21:58.768Z,19.67
2022-10-01T08:27:01.870Z,19.54
2022-10-01T08:32:04.739Z,19.44
2022-10-01T08:37:07.638Z,19.45
2022-10-01T08:42:33.491Z,19.41
2022-10-01T08:47:41.292Z,19.29
2022-10-01T08:52:57.469Z,19.21
2022-10-01T08:58:06.973Z,18.87
2022-10-01T09:03:15.018Z,18.45
2022-10-01T09:08:24.208Z,17.98
2022-10-01T09:13:59.849Z,17.49
2022-10-01T09:19:17.849Z,17.03
2022-10-01T09:24:29.623Z,16.75
2022-10-01T09:30:07.105Z,16.55
2022-10-01T09:35:37.275Z,16.46
2022-10-01T09:40:53.536Z,16.37
2022-10-01T09:45:56.791Z,16.26
2022-10-01T09:51:08.791Z,16.18
2022-10-01T09:56:19.243Z,16.05
2022-10-01T10:01:44.079Z,15.92
2022-10-01T10:06:48.272Z,15.84
2022-10-01T10:11:51.724Z,15.73
2022-10-01T10:16:56.771Z,15.60
2022-10-01T10:22:12.790Z,15.61
2022-10-01T10:27:29.282Z,15.61
2022-10-01T10:32:33.098Z,15.53
2022-10-01T10:37:39.141Z,15.50
2022-10-01T10:42:49.084Z,15.51
2022-10-01T10:47:53.852Z,15.49
2022-10-01T10:52:57.850Z,15.50
2022-10-01T10:58:12.038Z,15.51
2022-10-01T11:03:18.101Z,15.49
2022-10-01T11:08:27.956Z,15.53
2022-10-01T11:14:09.640Z,15.55
2022-10-01T11:19:34.314Z,15.60
2022-10-01T11:24:37.101Z,15.68
2022-10-01T11:29:54.097Z,15.64
2022-10-01T11:35:12.123Z,15.60
2022-10-01T11:40:25.272Z,15.66
2022-10-01T11:45:32.187Z,15.73
2022-10-01T11:50:49.205Z,15.81
2022-10-01T11:56:44.278Z,16.02
2022-10-01T12:02:15.321Z,16.23
2022-10-01T12:07:52.692Z,16.23
2022-10-01T12:13:10.484Z,16.09
2022-10-01T12:18:22.414Z,16.05
2022-10-01T12:23:30.270Z,16.11
2022-10-01T12:28:53.623Z,16.16
2022-10-01T12:34:22.603Z,16.22
2022-10-01T12:39:44.235Z,16.28
2022-10-01T12:44:53.988Z,16.31
2022-10-01T12:50:12.404Z,16.27
2022-10-01T12:55:34.462Z,16.20
2022-10-01T13:01:07.077Z,16.17
2022-10-01T13:06:44.405Z,16.16
2022-10-01T13:12:16.480Z,16.15
2022-10-01T13:17:42.698Z,16.12
2022-10-01T13:23:00.980Z,16.11
2022-10-01T13:28:23.433Z,16.15
2022-10-01T13:33:29.214Z,16.19
2022-10-01T13:38:38.159Z,16.17
2022-10-01T13:43:57.080Z,16.10
2022-10-01T13:49:18.955Z,16.00
2022-10-01T13:54:44.255Z,15.95
2022-10-01T13:59:59.300Z,15.91
2022-10-01T14:05:27.004Z,15.92
2022-10-01T14:10:58.459Z,15.86
2022-10-01T14:16:03.439Z,15.72
2022-10-01T14:21:28.748Z,15.47
2022-10-01T14:26:40.006Z,15.14
2022-10-01T14:32:07.343Z,14.83
2022-10-01T14:37:17.324Z,14.53
2022-10-01T14:42:20.398Z,14.29
2022-10-01T14:47:28.089Z,14.11
2022-10-01T14:52:35.694Z,13.98
2022-10-01T14:57:42.801Z,13.89
2022-10-01T15:03:16.200Z,13.78
2022-10-01T15:08:37.125Z,13.65
2022-10-01T15:13:43.198Z,13.51
2022-10-01T15:18:50.245Z,13.42
2022-10-01T15:23:53.906Z,13.36
2022-10-01T15:29:07.526Z,13.31
2022-10-01T15:34:14.304Z,13.25
2022-10-01T15:39:46.266Z,13.17
2022-10-01T15:44:50.324Z,13.05
2022-10-01T15:50:23.891Z,12.93
2022-10-01T15:55:26.631Z,12.78
2022-10-01T16:00:32.297Z,12.68
2022-10-01T16:05:46.576Z,12.59
2022-10-01T16:11:20.375Z,12.51
2022-10-01T16:16:24.767Z,12.41
2022-10-01T16:21:27.818Z,12.31
2022-10-01T16:26:37.810Z,12.24
2022-10-01T16:31:45.849Z,12.19
2022-10-01T16:36:48.722Z,12.15
2022-10-01T16:42:11.934Z,12.10
2022-10-01T16:47:17.442Z,12.04
2022-10-01T16:52:21.522Z,12.04
2022-10-01T16:57:24.314Z,12.06
2022-10-01T17:02:27.062Z,12.05
2022-10-01T17:07:29.885Z,12.03
2022-10-01T17:12:32.681Z,12.01
2022-10-01T17:17:35.486Z,12.01
2022-10-01T17:22:44.789Z,12.00
2022-10-01T17:27:47.706Z,11.98
2022-10-01T17:32:51.357Z,11.97
2022-10-01T17:37:54.350Z,11.99
2022-10-01T17:42:57.128Z,11.98
2022-10-01T17:48:01.823Z,11.96
2022-10-01T17:53:04.606Z,11.93
2022-10-01T17:58:09.463Z,11.92
2022-10-01T18:03:12.326Z,11.93
2022-10-01T18:08:15.090Z,11.93
2022-10-01T18:13:18.334Z,11.92
2022-10-01T18:23:44.976Z,11.92
2022-10-01T18:28:48.211Z,11.91
2022-10-01T18:33:56.898Z,11.87
2022-10-01T18:39:15.403Z,11.85
2022-10-01T18:44:20.673Z,11.84
2022-10-01T18:49:43.575Z,11.82
2022-10-01T18:54:54.092Z,11.80
2022-10-01T19:00:15.703Z,11.79
2022-10-01T19:05:36.812Z,11.78
2022-10-01T19:10:45.676Z,11.77
2022-10-01T19:16:03.795Z,11.75
2022-10-01T19:21:20.929Z,11.75
2022-10-01T19:26:50.016Z,11.73
2022-10-01T19:32:03.068Z,11.70
2022-10-01T19:37:15.512Z,11.69
2022-10-01T19:42:25.638Z,11.70
2022-10-01T19:47:44.215Z,11.70
2022-10-01T19:52:51.529Z,11.68
2022-10-01T19:57:57.176Z,11.66
2022-10-01T20:03:11.371Z,11.64
2022-10-01T20:08:29.028Z,11.61
2022-10-01T20:13:34.438Z,11.60
2022-10-01T20:18:42.790Z,11.60
2022-10-01T20:23:49.551Z,11.59
2022-10-01T20:29:04.235Z,11.55
2022-10-01T20:34:22.011Z,11.49
2022-10-01T20:39:35.915Z,11.48
2022-10-01T20:44:39.428Z,11.42
2022-10-01T20:49:46.597Z,11.39
2022-10-01T20:54:59.318Z,11.38
2022-10-01T21:00:07.983Z,11.40
2022-10-01T21:05:28.003Z,11.41
2022-10-01T21:10:46.712Z,11.41
2022-10-01T21:16:01.642Z,11.35
2022-10-01T21:21:15.993Z,11.31
2022-10-01T21:26:49.384Z,11.30
2022-10-01T21:32:12.831Z,11.25
2022-10-01T21:37:27.630Z,11.17
2022-10-01T21:42:47.929Z,11.08
2022-10-01T21:47:50.616Z,11.01
2022-10-01T21:53:20.428Z,10.96
2022-10-01T21:58:52.221Z,10.95
2022-10-01T22:04:10.606Z,10.92
2022-10-01T22:09:26.825Z,10.84
2022-10-01T22:14:30.241Z,10.79
2022-10-01T22:19:37.685Z,10.77
2022-10-01T22:24:49.858Z,10.75
2022-10-01T22:30:05.525Z,10.74
2022-10-01T22:35:17.304Z,10.71
2022-10-01T22:40:27.198Z,10.66
2022-10-01T22:46:03.520Z,10.62
2022-10-01T22:51:36.961Z,10.60
2022-10-01T22:57:03.331Z,10.58
2022-10-01T23:02:17.445Z,10.56
2022-10-01T23:07:55.379Z,10.55
2022-10-01T23:13:24.715Z,10.53
2022-10-01T23:18:42.658Z,10.54
2022-10-01T23:24:09.136Z,10.54
2022-10-01T23:29:47.240Z,10.53
2022-10-01T23:35:22.467Z,10.54
2022-10-01T23:40:33.178Z,10.58
2022-10-01T23:46:11.417Z,10.60
2022-10-01T23:51:37.599Z,10.65
2022-10-01T23:57:00.159Z,10.70
